sensor_id;sensor_type;location;lat;lon;timestamp;temperature;humidity
20349;DHT22;10332;50.208;18.988;2022-10-16T00:01:42;14.10;99.90
20349;DHT22;10332;50.208;18.988;2022-10-16T00:04:09;14.10;99.90
20349;DHT22;10332;50.208;18.988;2022-10-16T00:06:37;14.10;99.90
20349;DHT22;10332;50.208;18.988;2022-10-16T00:09:05;14.10;99.90
20349;DHT22;10332;50.208;18.988;2022-10-16T00:11:35;14.10;99.90
20349;DHT22;10332;50.208;18.988;2022-10-16T00:14:08;14.10;99.90
20349;DHT22;10332;50.208;18.988;2022-10-16T00:16:40;14.10;99.90
20349;DHT22;10332;50.208;18.988;2022-10-16T00:19:09;14.10;99.90
20349;DHT22;10332;50.208;18.988;2022-10-16T00:21:39;14.10;99.90
20349;DHT22;10332;50.208;18.988;2022-10-16T00:24:08;14.10;99.90
20349;DHT22;10332;50.208;18.988;2022-10-16T00:26:37;14.10;99.90
20349;DHT22;10332;50.208;18.988;2022-10-16T00:29:06;14.10;99.90
20349;DHT22;10332;50.208;18.988;2022-10-16T00:31:35;14.10;99.90
20349;DHT22;10332;50.208;18.988;2022-10-16T00:34:03;14.20;99.90
20349;DHT22;10332;50.208;18.988;2022-10-16T00:36:30;14.20;99.90
20349;DHT22;10332;50.208;18.988;2022-10-16T00:38:59;14.20;99.90
20349;DHT22;10332;50.208;18.988;2022-10-16T00:41:29;14.20;99.90
20349;DHT22;10332;50.208;18.988;2022-10-16T00:44:41;14.20;99.80
20349;DHT22;10332;50.208;18.988;2022-10-16T00:47:11;14.20;99.70
20349;DHT22;10332;50.208;18.988;2022-10-16T00:49:45;14.30;99.90
20349;DHT22;10332;50.208;18.988;2022-10-16T00:52:14;14.30;99.50
20349;DHT22;10332;50.208;18.988;2022-10-16T00:54:42;14.30;99.40
20349;DHT22;10332;50.208;18.988;2022-10-16T00:57:10;14.30;99.60
20349;DHT22;10332;50.208;18.988;2022-10-16T00:59:41;14.30;99.70
20349;DHT22;10332;50.208;18.988;2022-10-16T01:02:12;14.20;99.60
20349;DHT22;10332;50.208;18.988;2022-10-16T01:04:51;14.20;99.90
20349;DHT22;10332;50.208;18.988;2022-10-16T01:10:38;14.20;99.90
20349;DHT22;10332;50.208;18.988;2022-10-16T01:13:35;14.20;99.70
20349;DHT22;10332;50.208;18.988;2022-10-16T01:16:16;14.20;99.50
20349;DHT22;10332;50.208;18.988;2022-10-16T01:18:59;14.20;99.30
20349;DHT22;10332;50.208;18.988;2022-10-16T01:21:40;14.20;99.20
20349;DHT22;10332;50.208;18.988;2022-10-16T01:27:18;14.20;99.40
20349;DHT22;10332;50.208;18.988;2022-10-16T01:30:10;14.20;99.40
20349;DHT22;10332;50.208;18.988;2022-10-16T01:32:50;14.10;99.90
20349;DHT22;10332;50.208;18.988;2022-10-16T01:35:27;14.10;99.90
20349;DHT22;10332;50.208;18.988;2022-10-16T01:38:04;14.00;99.90
20349;DHT22;10332;50.208;18.988;2022-10-16T01:40:45;14.00;99.90
20349;DHT22;10332;50.208;18.988;2022-10-16T01:43:21;14.00;99.90
20349;DHT22;10332;50.208;18.988;2022-10-16T01:45:52;13.90;99.90
20349;DHT22;10332;50.208;18.988;2022-10-16T01:48:21;13.80;99.90
20349;DHT22;10332;50.208;18.988;2022-10-16T01:51:05;13.80;99.90
20349;DHT22;10332;50.208;18.988;2022-10-16T01:53:36;13.80;99.90
20349;DHT22;10332;50.208;18.988;2022-10-16T01:56:08;13.90;99.90
20349;DHT22;10332;50.208;18.988;2022-10-16T01:58:44;13.80;99.90
20349;DHT22;10332;50.208;18.988;2022-10-16T02:01:18;13.80;99.90
20349;DHT22;10332;50.208;18.988;2022-10-16T02:03:52;13.70;99.90
20349;DHT22;10332;50.208;18.988;2022-10-16T02:06:23;13.70;99.90
20349;DHT22;10332;50.208;18.988;2022-10-16T02:08:51;13.70;99.90
20349;DHT22;10332;50.208;18.988;2022-10-16T02:11:20;13.70;99.90
20349;DHT22;10332;50.208;18.988;2022-10-16T02:14:01;13.70;99.90
20349;DHT22;10332;50.208;18.988;2022-10-16T02:16:38;13.70;99.90
20349;DHT22;10332;50.208;18.988;2022-10-16T02:19:07;13.60;99.90
20349;DHT22;10332;50.208;18.988;2022-10-16T02:22:00;13.60;99.90
20349;DHT22;10332;50.208;18.988;2022-10-16T02:33:10;13.50;99.90
20349;DHT22;10332;50.208;18.988;2022-10-16T02:35:43;13.40;99.90
20349;DHT22;10332;50.208;18.988;2022-10-16T02:38:15;13.40;99.90
20349;DHT22;10332;50.208;18.988;2022-10-16T02:40:44;13.40;99.90
20349;DHT22;10332;50.208;18.988;2022-10-16T02:43:12;13.40;99.90
20349;DHT22;10332;50.208;18.988;2022-10-16T02:45:40;13.30;99.90
20349;DHT22;10332;50.208;18.988;2022-10-16T02:48:08;13.30;99.90
20349;DHT22;10332;50.208;18.988;2022-10-16T02:50:35;13.30;99.90
20349;DHT22;10332;50.208;18.988;2022-10-16T02:53:02;13.30;99.90
20349;DHT22;10332;50.208;18.988;2022-10-16T02:55:30;13.20;99.90
20349;DHT22;10332;50.208;18.988;2022-10-16T02:57:57;13.20;99.90
20349;DHT22;10332;50.208;18.988;2022-10-16T03:00:24;13.20;99.90
20349;DHT22;10332;50.208;18.988;2022-10-16T03:02:52;13.20;99.90
20349;DHT22;10332;50.208;18.988;2022-10-16T03:05:19;13.20;99.90
20349;DHT22;10332;50.208;18.988;2022-10-16T03:07:51;13.20;99.90
20349;DHT22;10332;50.208;18.988;2022-10-16T03:10:19;13.20;99.90
20349;DHT22;10332;50.208;18.988;2022-10-16T03:12:47;13.20;99.90
20349;DHT22;10332;50.208;18.988;2022-10-16T03:15:14;13.20;99.90
20349;DHT22;10332;50.208;18.988;2022-10-16T03:17:41;13.20;99.90
20349;DHT22;10332;50.208;18.988;2022-10-16T03:20:09;13.20;99.90
20349;DHT22;10332;50.208;18.988;2022-10-16T03:22:37;13.20;99.90
20349;DHT22;10332;50.208;18.988;2022-10-16T03:25:04;13.20;99.90
20349;DHT22;10332;50.208;18.988;2022-10-16T03:27:32;13.10;99.90
20349;DHT22;10332;50.208;18.988;2022-10-16T03:29:59;13.10;99.90
20349;DHT22;10332;50.208;18.988;2022-10-16T03:32:26;13.10;99.90
20349;DHT22;10332;50.208;18.988;2022-10-16T03:34:55;13.00;99.90
20349;DHT22;10332;50.208;18.988;2022-10-16T03:37:24;13.00;99.90
20349;DHT22;10332;50.208;18.988;2022-10-16T03:39:52;13.00;99.90
20349;DHT22;10332;50.208;18.988;2022-10-16T03:42:19;13.00;99.90
20349;DHT22;10332;50.208;18.988;2022-10-16T03:44:46;13.00;99.90
20349;DHT22;10332;50.208;18.988;2022-10-16T03:47:14;13.00;99.90
20349;DHT22;10332;50.208;18.988;2022-10-16T03:49:41;13.00;99.90
20349;DHT22;10332;50.208;18.988;2022-10-16T03:52:08;13.00;99.90
20349;DHT22;10332;50.208;18.988;2022-10-16T03:54:35;13.00;99.90
20349;DHT22;10332;50.208;18.988;2022-10-16T03:57:03;13.00;99.90
20349;DHT22;10332;50.208;18.988;2022-10-16T03:59:30;13.00;99.90
20349;DHT22;10332;50.208;18.988;2022-10-16T04:01:57;13.00;99.90
20349;DHT22;10332;50.208;18.988;2022-10-16T04:04:24;13.10;99.90
20349;DHT22;10332;50.208;18.988;2022-10-16T04:06:52;13.10;99.90
20349;DHT22;10332;50.208;18.988;2022-10-16T04:09:19;13.10;99.90
20349;DHT22;10332;50.208;18.988;2022-10-16T04:11:46;13.20;99.90
20349;DHT22;10332;50.208;18.988;2022-10-16T04:14:14;13.20;99.90
20349;DHT22;10332;50.208;18.988;2022-10-16T04:16:41;13.30;99.90
20349;DHT22;10332;50.208;18.988;2022-10-16T04:19:10;13.30;99.90
20349;DHT22;10332;50.208;18.988;2022-10-16T04:21:38;13.30;99.90
20349;DHT22;10332;50.208;18.988;2022-10-16T04:24:05;13.40;99.90
20349;DHT22;10332;50.208;18.988;2022-10-16T04:26:32;13.40;99.90
20349;DHT22;10332;50.208;18.988;2022-10-16T04:29:00;13.40;99.90
20349;DHT22;10332;50.208;18.988;2022-10-16T04:31:27;13.40;99.90
20349;DHT22;10332;50.208;18.988;2022-10-16T04:33:55;13.40;99.90
20349;DHT22;10332;50.208;18.988;2022-10-16T04:36:22;13.40;99.90
20349;DHT22;10332;50.208;18.988;2022-10-16T04:38:54;13.40;99.90
20349;DHT22;10332;50.208;18.988;2022-10-16T04:41:22;13.40;99.90
20349;DHT22;10332;50.208;18.988;2022-10-16T04:43:49;13.30;99.90
20349;DHT22;10332;50.208;18.988;2022-10-16T04:46:16;13.40;99.90
20349;DHT22;10332;50.208;18.988;2022-10-16T04:48:44;13.40;99.90
20349;DHT22;10332;50.208;18.988;2022-10-16T04:51:11;13.30;99.90
20349;DHT22;10332;50.208;18.988;2022-10-16T04:53:38;13.30;99.90
20349;DHT22;10332;50.208;18.988;2022-10-16T04:56:06;13.30;99.90
20349;DHT22;10332;50.208;18.988;2022-10-16T04:58:33;13.30;99.90
20349;DHT22;10332;50.208;18.988;2022-10-16T05:01:00;13.30;99.90
20349;DHT22;10332;50.208;18.988;2022-10-16T05:03:27;13.30;99.90
20349;DHT22;10332;50.208;18.988;2022-10-16T05:05:58;13.30;99.90
20349;DHT22;10332;50.208;18.988;2022-10-16T05:08:25;13.30;99.90
20349;DHT22;10332;50.208;18.988;2022-10-16T05:10:52;13.30;99.90
20349;DHT22;10332;50.208;18.988;2022-10-16T05:13:19;13.30;99.90
20349;DHT22;10332;50.208;18.988;2022-10-16T05:15:48;13.30;99.90
20349;DHT22;10332;50.208;18.988;2022-10-16T05:18:16;13.30;99.90
20349;DHT22;10332;50.208;18.988;2022-10-16T05:20:43;13.30;99.90
20349;DHT22;10332;50.208;18.988;2022-10-16T05:23:11;13.30;99.90
20349;DHT22;10332;50.208;18.988;2022-10-16T05:25:39;13.30;99.90
20349;DHT22;10332;50.208;18.988;2022-10-16T05:28:06;13.40;99.90
20349;DHT22;10332;50.208;18.988;2022-10-16T05:30:34;13.40;99.90
20349;DHT22;10332;50.208;18.988;2022-10-16T05:33:03;13.40;99.90
20349;DHT22;10332;50.208;18.988;2022-10-16T05:35:31;13.40;99.90
20349;DHT22;10332;50.208;18.988;2022-10-16T05:37:58;13.50;99.90
20349;DHT22;10332;50.208;18.988;2022-10-16T05:40:26;13.50;99.90
20349;DHT22;10332;50.208;18.988;2022-10-16T05:42:55;13.50;99.90
20349;DHT22;10332;50.208;18.988;2022-10-16T05:45:23;13.60;99.90
20349;DHT22;10332;50.208;18.988;2022-10-16T05:47:50;13.70;99.90
20349;DHT22;10332;50.208;18.988;2022-10-16T05:50:18;13.70;99.90
20349;DHT22;10332;50.208;18.988;2022-10-16T05:52:45;13.80;99.90
20349;DHT22;10332;50.208;18.988;2022-10-16T05:55:12;13.80;99.90
20349;DHT22;10332;50.208;18.988;2022-10-16T05:57:40;13.90;99.90
20349;DHT22;10332;50.208;18.988;2022-10-16T06:00:07;13.90;99.90
20349;DHT22;10332;50.208;18.988;2022-10-16T06:02:35;14.00;99.20
20349;DHT22;10332;50.208;18.988;2022-10-16T06:05:03;14.10;98.50
20349;DHT22;10332;50.208;18.988;2022-10-16T06:07:34;14.20;97.90
20349;DHT22;10332;50.208;18.988;2022-10-16T06:10:03;14.30;97.20
20349;DHT22;10332;50.208;18.988;2022-10-16T06:12:31;14.30;96.80
20349;DHT22;10332;50.208;18.988;2022-10-16T06:14:59;14.40;96.50
20349;DHT22;10332;50.208;18.988;2022-10-16T06:17:26;14.50;95.90
20349;DHT22;10332;50.208;18.988;2022-10-16T06:19:54;14.60;95.20
20349;DHT22;10332;50.208;18.988;2022-10-16T06:22:21;14.70;95.20
20349;DHT22;10332;50.208;18.988;2022-10-16T06:24:48;14.80;94.30
20349;DHT22;10332;50.208;18.988;2022-10-16T06:27:16;14.90;94.00
20349;DHT22;10332;50.208;18.988;2022-10-16T06:29:44;15.10;93.50
20349;DHT22;10332;50.208;18.988;2022-10-16T06:32:12;15.20;92.90
20349;DHT22;10332;50.208;18.988;2022-10-16T06:34:39;15.30;92.10
20349;DHT22;10332;50.208;18.988;2022-10-16T06:37:10;15.40;92.10
20349;DHT22;10332;50.208;18.988;2022-10-16T06:39:37;15.60;90.70
20349;DHT22;10332;50.208;18.988;2022-10-16T06:42:04;15.70;89.80
20349;DHT22;10332;50.208;18.988;2022-10-16T06:44:31;16.00;87.90
20349;DHT22;10332;50.208;18.988;2022-10-16T06:46:59;16.20;85.90
20349;DHT22;10332;50.208;18.988;2022-10-16T06:49:26;16.30;83.60
20349;DHT22;10332;50.208;18.988;2022-10-16T06:51:55;16.50;83.40
20349;DHT22;10332;50.208;18.988;2022-10-16T06:54:22;16.60;80.10
20349;DHT22;10332;50.208;18.988;2022-10-16T06:56:51;16.80;79.70
20349;DHT22;10332;50.208;18.988;2022-10-16T06:59:18;17.00;77.10
20349;DHT22;10332;50.208;18.988;2022-10-16T07:01:45;17.10;75.10
20349;DHT22;10332;50.208;18.988;2022-10-16T07:04:13;17.20;75.30
20349;DHT22;10332;50.208;18.988;2022-10-16T07:06:40;17.20;73.00
20349;DHT22;10332;50.208;18.988;2022-10-16T07:09:10;17.30;72.50
20349;DHT22;10332;50.208;18.988;2022-10-16T07:11:39;17.30;72.00
20349;DHT22;10332;50.208;18.988;2022-10-16T07:14:16;17.50;71.00
20349;DHT22;10332;50.208;18.988;2022-10-16T07:16:45;17.60;69.30
20349;DHT22;10332;50.208;18.988;2022-10-16T07:19:13;17.80;68.10
20349;DHT22;10332;50.208;18.988;2022-10-16T07:21:42;18.10;66.20
20349;DHT22;10332;50.208;18.988;2022-10-16T07:24:15;18.20;64.90
20349;DHT22;10332;50.208;18.988;2022-10-16T07:26:44;18.30;63.50
20349;DHT22;10332;50.208;18.988;2022-10-16T07:29:15;18.30;63.10
20349;DHT22;10332;50.208;18.988;2022-10-16T07:31:45;18.30;62.90
20349;DHT22;10332;50.208;18.988;2022-10-16T07:34:15;18.50;62.00
20349;DHT22;10332;50.208;18.988;2022-10-16T07:36:47;18.60;61.50
20349;DHT22;10332;50.208;18.988;2022-10-16T07:39:15;19.00;60.00
20349;DHT22;10332;50.208;18.988;2022-10-16T07:41:43;20.20;56.70
20349;DHT22;10332;50.208;18.988;2022-10-16T07:44:10;22.30;40.90
20349;DHT22;10332;50.208;18.988;2022-10-16T07:46:38;22.70;33.50
20349;DHT22;10332;50.208;18.988;2022-10-16T07:49:05;22.60;30.60
20349;DHT22;10332;50.208;18.988;2022-10-16T07:51:33;23.20;28.20
20349;DHT22;10332;50.208;18.988;2022-10-16T07:54:00;23.30;24.80
20349;DHT22;10332;50.208;18.988;2022-10-16T07:56:30;23.00;24.90
20349;DHT22;10332;50.208;18.988;2022-10-16T07:58:59;22.50;25.50
20349;DHT22;10332;50.208;18.988;2022-10-16T08:01:27;22.10;26.20
20349;DHT22;10332;50.208;18.988;2022-10-16T08:03:54;21.90;28.50
20349;DHT22;10332;50.208;18.988;2022-10-16T08:06:22;22.10;28.20
20349;DHT22;10332;50.208;18.988;2022-10-16T08:08:55;22.50;27.00
20349;DHT22;10332;50.208;18.988;2022-10-16T08:11:22;24.90;20.80
20349;DHT22;10332;50.208;18.988;2022-10-16T08:13:50;25.80;11.50
20349;DHT22;10332;50.208;18.988;2022-10-16T08:16:17;25.50;6.20
20349;DHT22;10332;50.208;18.988;2022-10-16T08:18:45;25.00;5.20
20349;DHT22;10332;50.208;18.988;2022-10-16T08:21:15;24.50;6.20
20349;DHT22;10332;50.208;18.988;2022-10-16T08:23:47;24.20;6.80
20349;DHT22;10332;50.208;18.988;2022-10-16T08:26:23;24.40;7.20
20349;DHT22;10332;50.208;18.988;2022-10-16T08:28:50;24.60;5.60
20349;DHT22;10332;50.208;18.988;2022-10-16T08:31:19;24.70;4.20
20349;DHT22;10332;50.208;18.988;2022-10-16T08:33:47;26.50;1.00
20349;DHT22;10332;50.208;18.988;2022-10-16T08:36:15;30.30;1.00
20349;DHT22;10332;50.208;18.988;2022-10-16T08:38:43;32.40;1.00
20349;DHT22;10332;50.208;18.988;2022-10-16T08:44:29;31.70;1.00
20349;DHT22;10332;50.208;18.988;2022-10-16T08:49:38;33.40;1.00
20349;DHT22;10332;50.208;18.988;2022-10-16T08:52:15;32.10;1.00
20349;DHT22;10332;50.208;18.988;2022-10-16T08:54:46;30.40;1.00
20349;DHT22;10332;50.208;18.988;2022-10-16T08:57:22;28.80;1.00
20349;DHT22;10332;50.208;18.988;2022-10-16T08:59:53;27.70;1.00
20349;DHT22;10332;50.208;18.988;2022-10-16T09:02:40;26.70;1.00
20349;DHT22;10332;50.208;18.988;2022-10-16T09:20:30;27.50;1.00
20349;DHT22;10332;50.208;18.988;2022-10-16T09:25:32;28.40;1.00
20349;DHT22;10332;50.208;18.988;2022-10-16T09:28:00;31.50;1.00
20349;DHT22;10332;50.208;18.988;2022-10-16T09:30:29;34.80;1.00
20349;DHT22;10332;50.208;18.988;2022-10-16T09:32:58;37.10;1.00
20349;DHT22;10332;50.208;18.988;2022-10-16T09:38:31;37.80;1.00
20349;DHT22;10332;50.208;18.988;2022-10-16T09:41:15;38.10;1.00
20349;DHT22;10332;50.208;18.988;2022-10-16T09:43:53;37.00;1.00
20349;DHT22;10332;50.208;18.988;2022-10-16T09:46:32;34.90;1.00
20349;DHT22;10332;50.208;18.988;2022-10-16T09:49:04;33.10;1.00
20349;DHT22;10332;50.208;18.988;2022-10-16T09:51:45;32.60;1.00
20349;DHT22;10332;50.208;18.988;2022-10-16T09:54:18;32.90;1.00
20349;DHT22;10332;50.208;18.988;2022-10-16T09:56:47;33.30;1.00
20349;DHT22;10332;50.208;18.988;2022-10-16T09:59:21;32.20;1.00
20349;DHT22;10332;50.208;18.988;2022-10-16T10:01:54;30.80;1.00
20349;DHT22;10332;50.208;18.988;2022-10-16T10:04:24;29.30;1.00
20349;DHT22;10332;50.208;18.988;2022-10-16T10:06:56;28.20;1.00
20349;DHT22;10332;50.208;18.988;2022-10-16T10:09:48;27.40;1.00
20349;DHT22;10332;50.208;18.988;2022-10-16T10:12:31;26.70;1.00
20349;DHT22;10332;50.208;18.988;2022-10-16T10:15:14;26.10;1.00
20349;DHT22;10332;50.208;18.988;2022-10-16T10:17:58;25.70;1.00
20349;DHT22;10332;50.208;18.988;2022-10-16T10:20:35;25.20;1.00
20349;DHT22;10332;50.208;18.988;2022-10-16T10:23:22;24.70;1.00
20349;DHT22;10332;50.208;18.988;2022-10-16T10:31:41;24.00;1.00
20349;DHT22;10332;50.208;18.988;2022-10-16T10:46:05;22.30;1.00
20349;DHT22;10332;50.208;18.988;2022-10-16T10:49:10;22.20;1.00
20349;DHT22;10332;50.208;18.988;2022-10-16T11:06:10;23.30;1.00
20349;DHT22;10332;50.208;18.988;2022-10-16T11:11:47;24.00;1.00
20349;DHT22;10332;50.208;18.988;2022-10-16T11:14:30;24.10;1.00
20349;DHT22;10332;50.208;18.988;2022-10-16T11:17:19;24.20;1.00
20349;DHT22;10332;50.208;18.988;2022-10-16T11:20:26;24.10;1.00
20349;DHT22;10332;50.208;18.988;2022-10-16T11:23:08;24.10;1.00
20349;DHT22;10332;50.208;18.988;2022-10-16T11:25:43;24.00;1.00
20349;DHT22;10332;50.208;18.988;2022-10-16T11:28:18;23.90;1.00
20349;DHT22;10332;50.208;18.988;2022-10-16T11:31:02;23.70;1.00
20349;DHT22;10332;50.208;18.988;2022-10-16T11:33:57;23.70;1.00
20349;DHT22;10332;50.208;18.988;2022-10-16T11:37:05;23.80;1.00
20349;DHT22;10332;50.208;18.988;2022-10-16T11:39:30;23.90;1.00
20349;DHT22;10332;50.208;18.988;2022-10-16T11:48:15;23.70;1.00
20349;DHT22;10332;50.208;18.988;2022-10-16T11:51:18;23.80;1.00
20349;DHT22;10332;50.208;18.988;2022-10-16T11:56:53;26.00;1.00
20349;DHT22;10332;50.208;18.988;2022-10-16T12:00:39;28.50;1.00
20349;DHT22;10332;50.208;18.988;2022-10-16T12:03:17;31.00;1.00
20349;DHT22;10332;50.208;18.988;2022-10-16T12:06:12;32.40;1.00
20349;DHT22;10332;50.208;18.988;2022-10-16T12:08:51;32.50;1.00
20349;DHT22;10332;50.208;18.988;2022-10-16T12:19:28;37.20;1.00
20349;DHT22;10332;50.208;18.988;2022-10-16T12:21:59;37.50;1.00
20349;DHT22;10332;50.208;18.988;2022-10-16T12:24:37;37.40;1.00
20349;DHT22;10332;50.208;18.988;2022-10-16T12:27:27;37.90;1.00
20349;DHT22;10332;50.208;18.988;2022-10-16T12:30:02;37.00;1.00
20349;DHT22;10332;50.208;18.988;2022-10-16T12:32:37;36.00;1.00
20349;DHT22;10332;50.208;18.988;2022-10-16T12:35:26;34.70;1.00
20349;DHT22;10332;50.208;18.988;2022-10-16T12:38:17;34.00;1.00
20349;DHT22;10332;50.208;18.988;2022-10-16T12:41:07;34.00;1.00
20349;DHT22;10332;50.208;18.988;2022-10-16T12:43:43;33.60;1.00
20349;DHT22;10332;50.208;18.988;2022-10-16T12:48:41;32.70;1.00
20349;DHT22;10332;50.208;18.988;2022-10-16T12:54:21;31.70;1.00
20349;DHT22;10332;50.208;18.988;2022-10-16T13:15:16;28.50;1.00
20349;DHT22;10332;50.208;18.988;2022-10-16T13:18:05;28.80;1.00
20349;DHT22;10332;50.208;18.988;2022-10-16T13:20:56;28.50;1.00
20349;DHT22;10332;50.208;18.988;2022-10-16T13:29:35;26.70;1.00
20349;DHT22;10332;50.208;18.988;2022-10-16T13:32:08;26.30;1.00
20349;DHT22;10332;50.208;18.988;2022-10-16T13:34:47;26.30;1.00
20349;DHT22;10332;50.208;18.988;2022-10-16T13:37:18;26.70;1.00
20349;DHT22;10332;50.208;18.988;2022-10-16T13:39:48;27.70;1.00
20349;DHT22;10332;50.208;18.988;2022-10-16T13:42:25;28.40;1.00
20349;DHT22;10332;50.208;18.988;2022-10-16T13:44:55;29.20;1.00
20349;DHT22;10332;50.208;18.988;2022-10-16T13:47:28;29.00;1.00
20349;DHT22;10332;50.208;18.988;2022-10-16T13:50:19;30.80;1.00
20349;DHT22;10332;50.208;18.988;2022-10-16T13:52:46;33.50;1.00
20349;DHT22;10332;50.208;18.988;2022-10-16T13:55:16;35.60;1.00
20349;DHT22;10332;50.208;18.988;2022-10-16T13:57:45;36.50;1.00
20349;DHT22;10332;50.208;18.988;2022-10-16T14:00:26;37.10;1.00
20349;DHT22;10332;50.208;18.988;2022-10-16T14:03:03;37.30;1.00
20349;DHT22;10332;50.208;18.988;2022-10-16T14:05:34;37.70;1.00
20349;DHT22;10332;50.208;18.988;2022-10-16T14:08:02;38.30;1.00
20349;DHT22;10332;50.208;18.988;2022-10-16T14:10:32;38.40;1.00
20349;DHT22;10332;50.208;18.988;2022-10-16T14:13:01;38.30;1.00
20349;DHT22;10332;50.208;18.988;2022-10-16T14:15:32;38.10;1.00
20349;DHT22;10332;50.208;18.988;2022-10-16T14:18:03;38.30;1.00
20349;DHT22;10332;50.208;18.988;2022-10-16T14:20:33;38.10;1.00
20349;DHT22;10332;50.208;18.988;2022-10-16T14:23:16;37.50;1.00
20349;DHT22;10332;50.208;18.988;2022-10-16T14:25:46;37.70;1.00
20349;DHT22;10332;50.208;18.988;2022-10-16T14:28:19;38.10;1.00
20349;DHT22;10332;50.208;18.988;2022-10-16T14:30:56;38.00;1.00
20349;DHT22;10332;50.208;18.988;2022-10-16T14:36:11;37.80;1.00
20349;DHT22;10332;50.208;18.988;2022-10-16T14:38:47;37.30;1.00
20349;DHT22;10332;50.208;18.988;2022-10-16T14:41:24;36.70;1.00
20349;DHT22;10332;50.208;18.988;2022-10-16T14:44:02;36.00;1.00
20349;DHT22;10332;50.208;18.988;2022-10-16T14:46:38;35.30;1.00
20349;DHT22;10332;50.208;18.988;2022-10-16T14:51:41;35.20;1.00
20349;DHT22;10332;50.208;18.988;2022-10-16T14:54:12;34.40;1.00
20349;DHT22;10332;50.208;18.988;2022-10-16T14:56:51;33.90;1.00
20349;DHT22;10332;50.208;18.988;2022-10-16T14:59:35;33.50;1.00
20349;DHT22;10332;50.208;18.988;2022-10-16T15:04:48;32.40;1.00
20349;DHT22;10332;50.208;18.988;2022-10-16T15:07:16;31.20;1.00
20349;DHT22;10332;50.208;18.988;2022-10-16T15:09:43;30.60;1.00
20349;DHT22;10332;50.208;18.988;2022-10-16T15:12:16;29.60;1.00
20349;DHT22;10332;50.208;18.988;2022-10-16T15:14:44;28.20;1.00
20349;DHT22;10332;50.208;18.988;2022-10-16T15:17:11;27.10;1.00
20349;DHT22;10332;50.208;18.988;2022-10-16T15:19:41;26.20;1.00
20349;DHT22;10332;50.208;18.988;2022-10-16T15:22:11;25.40;1.00
20349;DHT22;10332;50.208;18.988;2022-10-16T15:24:38;24.70;1.00
20349;DHT22;10332;50.208;18.988;2022-10-16T15:27:06;24.10;1.00
20349;DHT22;10332;50.208;18.988;2022-10-16T15:29:33;23.60;1.00
20349;DHT22;10332;50.208;18.988;2022-10-16T15:32:00;23.20;1.00
20349;DHT22;10332;50.208;18.988;2022-10-16T15:34:28;22.80;1.00
20349;DHT22;10332;50.208;18.988;2022-10-16T15:36:55;22.50;1.00
20349;DHT22;10332;50.208;18.988;2022-10-16T15:39:24;22.30;1.00
20349;DHT22;10332;50.208;18.988;2022-10-16T15:41:52;22.10;1.00
20349;DHT22;10332;50.208;18.988;2022-10-16T15:44:20;21.90;1.00
20349;DHT22;10332;50.208;18.988;2022-10-16T15:46:56;21.70;1.00
20349;DHT22;10332;50.208;18.988;2022-10-16T15:49:23;21.50;1.00
20349;DHT22;10332;50.208;18.988;2022-10-16T15:51:51;21.40;1.00
20349;DHT22;10332;50.208;18.988;2022-10-16T15:54:20;21.20;1.00
20349;DHT22;10332;50.208;18.988;2022-10-16T15:56:49;21.00;1.00
20349;DHT22;10332;50.208;18.988;2022-10-16T15:59:16;20.90;2.70
20349;DHT22;10332;50.208;18.988;2022-10-16T16:01:44;20.70;11.70
20349;DHT22;10332;50.208;18.988;2022-10-16T16:04:12;20.60;17.00
20349;DHT22;10332;50.208;18.988;2022-10-16T16:06:59;20.50;21.40
20349;DHT22;10332;50.208;18.988;2022-10-16T16:09:31;20.40;25.80
20349;DHT22;10332;50.208;18.988;2022-10-16T16:11:58;20.30;30.00
20349;DHT22;10332;50.208;18.988;2022-10-16T16:14:28;20.20;34.00
20349;DHT22;10332;50.208;18.988;2022-10-16T16:16:55;20.10;37.40
20349;DHT22;10332;50.208;18.988;2022-10-16T16:19:23;20.10;38.80
20349;DHT22;10332;50.208;18.988;2022-10-16T16:21:50;20.00;40.40
20349;DHT22;10332;50.208;18.988;2022-10-16T16:24:18;19.90;46.20
20349;DHT22;10332;50.208;18.988;2022-10-16T16:26:46;19.90;47.40
20349;DHT22;10332;50.208;18.988;2022-10-16T16:29:15;19.80;48.50
20349;DHT22;10332;50.208;18.988;2022-10-16T16:31:42;19.80;49.40
20349;DHT22;10332;50.208;18.988;2022-10-16T16:34:10;19.70;51.70
20349;DHT22;10332;50.208;18.988;2022-10-16T16:36:37;19.60;53.20
20349;DHT22;10332;50.208;18.988;2022-10-16T16:39:06;19.50;56.70
20349;DHT22;10332;50.208;18.988;2022-10-16T16:41:34;19.40;57.80
20349;DHT22;10332;50.208;18.988;2022-10-16T16:44:04;19.30;59.40
20349;DHT22;10332;50.208;18.988;2022-10-16T16:46:34;19.20;59.50
20349;DHT22;10332;50.208;18.988;2022-10-16T16:49:02;19.00;60.00
20349;DHT22;10332;50.208;18.988;2022-10-16T16:51:30;19.00;61.10
20349;DHT22;10332;50.208;18.988;2022-10-16T16:54:01;18.90;61.40
20349;DHT22;10332;50.208;18.988;2022-10-16T16:56:28;18.80;61.30
20349;DHT22;10332;50.208;18.988;2022-10-16T16:58:56;18.70;61.90
20349;DHT22;10332;50.208;18.988;2022-10-16T17:01:25;18.70;63.00
20349;DHT22;10332;50.208;18.988;2022-10-16T17:03:55;18.60;64.90
20349;DHT22;10332;50.208;18.988;2022-10-16T17:06:26;18.50;66.00
20349;DHT22;10332;50.208;18.988;2022-10-16T17:08:57;18.50;66.80
20349;DHT22;10332;50.208;18.988;2022-10-16T17:11:26;18.50;68.20
20349;DHT22;10332;50.208;18.988;2022-10-16T17:13:55;18.40;68.70
20349;DHT22;10332;50.208;18.988;2022-10-16T17:16:27;18.30;68.80
20349;DHT22;10332;50.208;18.988;2022-10-16T17:19:05;18.20;68.90
20349;DHT22;10332;50.208;18.988;2022-10-16T17:21:35;18.20;69.30
20349;DHT22;10332;50.208;18.988;2022-10-16T17:24:03;18.10;69.80
20349;DHT22;10332;50.208;18.988;2022-10-16T17:26:32;18.10;70.40
20349;DHT22;10332;50.208;18.988;2022-10-16T17:29:04;18.00;71.20
20349;DHT22;10332;50.208;18.988;2022-10-16T17:31:35;17.90;71.60
20349;DHT22;10332;50.208;18.988;2022-10-16T17:34:06;17.90;71.70
20349;DHT22;10332;50.208;18.988;2022-10-16T17:36:36;17.90;72.60
20349;DHT22;10332;50.208;18.988;2022-10-16T17:39:07;17.80;72.40
20349;DHT22;10332;50.208;18.988;2022-10-16T17:41:36;17.80;73.10
20349;DHT22;10332;50.208;18.988;2022-10-16T17:44:04;17.70;73.50
20349;DHT22;10332;50.208;18.988;2022-10-16T17:46:32;17.70;73.90
20349;DHT22;10332;50.208;18.988;2022-10-16T17:49:08;17.60;74.50
20349;DHT22;10332;50.208;18.988;2022-10-16T17:51:35;17.60;74.60
20349;DHT22;10332;50.208;18.988;2022-10-16T17:54:03;17.60;74.70
20349;DHT22;10332;50.208;18.988;2022-10-16T17:56:30;17.60;75.20
20349;DHT22;10332;50.208;18.988;2022-10-16T17:58:59;17.60;75.60
20349;DHT22;10332;50.208;18.988;2022-10-16T18:01:31;17.50;75.90
20349;DHT22;10332;50.208;18.988;2022-10-16T18:04:09;17.50;75.60